AQT - Nuiqsut

Pirep is a free, collaborative database of all public and private airports located within the United States. All pilots are welcome to contribute, edit, and improve any airport they have local knowledge about, no registration required.
Are you familiar with this airport? Help out other pilots by adding your local knowledge.
Uploaded photos will be licensed under a CC BY-SA 4.0 license. Please only upload photos you have the rights to use.
Tags
Public
Undocu­mented
METAR / TAF
Webcam
Edit Tags
Food
Camping
Lodging
Car Rental
Bicycles
Swimming
Golfing
Fishing
Hot Springs
Museum
Flying Clubs
Airpark
Upcoming Events
No upcoming events. Is anything happening here soon?
*
*
*

Where exactly on/near the airport is this event taking place?

Is there a webpage with more information for this event?

Who should be contacted for more information?

What is this event all about?

Repeat every
Description
Transient Parking
Fuel Location
Landing & Tie-down Fees
Crew Car Availability
Flying Clubs
WiFi Access
Airport Statistics
Location: Nuiqsut, AK
Elevation: 45ft
Sectional: Point Barrow
Activation date: Jun 1977
Fuel: None
Runway 05/23: 4,589ft
Access: Open to the public
Current Weather — MVFR
  • Weather data is strictly informational and not for flight planning purposes.
  • METAR
    2024-05-26 02:53:00 AKDT
    Ceiling Wind Temperature Dewpoint Weather Visbility
    2,300ft 50° @ 6kt 23°F 19°F Unknown precipitation 10SM
    Clouds: Overcast @ 2,300ft
    Raw: PAQT 261053Z AUTO 05006KT 10SM UP OVC023 M05/M07 A3013 RMK AO2 SLP203 P0000 T10501067 TSNO
  • TAF
    2024-05-26 01:00:00 AKDT – 2024-05-26 06:00:00 AKDT
    Ceiling Wind Weather Visbility
    3,500ft 70° @ 4kt Light snow, mist 6SM
    Clouds: Overcast @ 3,500ft
    Raw: PAQT 260859Z 2609/2706 07004KT 6SM -SN BR OVC035 TEMPO 2609/2612 1/2SM FZFG OVC005 FM261400 03005KT 2SM -SN BR OVC007 FM262300 06012KT 6SM -SHSN BR OVC007
  • TAF
    2024-05-26 01:00:00 AKDT – 2024-05-26 04:00:00 AKDT
    Ceiling Wind Weather Visbility
    500ft ° @ kt Freezing fog 0SM
    Clouds: Overcast @ 500ft
    Raw: PAQT 260859Z 2609/2706 07004KT 6SM -SN BR OVC035 TEMPO 2609/2612 1/2SM FZFG OVC005 FM261400 03005KT 2SM -SN BR OVC007 FM262300 06012KT 6SM -SHSN BR OVC007
  • TAF
    2024-05-26 06:00:00 AKDT – 2024-05-26 15:00:00 AKDT
    Ceiling Wind Weather Visbility
    700ft 30° @ 5kt Light snow, mist 2SM
    Clouds: Overcast @ 700ft
    Raw: PAQT 260859Z 2609/2706 07004KT 6SM -SN BR OVC035 TEMPO 2609/2612 1/2SM FZFG OVC005 FM261400 03005KT 2SM -SN BR OVC007 FM262300 06012KT 6SM -SHSN BR OVC007
  • TAF
    2024-05-26 15:00:00 AKDT – 2024-05-26 22:00:00 AKDT
    Ceiling Wind Weather Visbility
    700ft 60° @ 12kt Light snow showers, mist 6SM
    Clouds: Overcast @ 700ft
    Raw: PAQT 260859Z 2609/2706 07004KT 6SM -SN BR OVC035 TEMPO 2609/2612 1/2SM FZFG OVC005 FM261400 03005KT 2SM -SN BR OVC007 FM262300 06012KT 6SM -SHSN BR OVC007
Click/tap to add an annotation marker to the map
Direct links to live image URLs will be displayed inline on this page. URLs to separate webpages will be linked to.
URL:
Direct links to live image URLs will be displayed inline on this page. URLs to separate webpages will be linked to.
URL:
Remarks
  • Airspace determination pending.
  • Birds & caribou on & invof arpt.
  • Rwy cond unmnt; rcmd visual insp prior to lndg.
  • 100 ft lighted twr 847 ft north of rwy 23 thr.
  • Deadhorse fss lcl - 907 659-2401; fairbanks fss - 1-866-248-6516.
  • Wx camera avbl on internet at https://weathercams.faa.gov.
  • Actvt malsf rwy 05, reil rwy 23; papi rwy 05, 23; mirl rwy 05/23 - ctaf.
  • Ext 342
Comments
Leave a comment What was your experience like at this airport?